Time;durP1;ratioP1;P1;durP2;ratioP2;P2;SDS_P1;SDS_P2;PMS_P1;PMS_P2;Temp;Humidity;BMP_temperature;BMP_pressure;BME280_temperature;BME280_humidity;BME280_pressure;Samples;Min_cycle;Max_cycle;Signal;HPM_P1;HPM_P2
2021/01/30 00:04:29;;;;;;;2.75;1.00;;;;;;;8.34;72.28;98531.84;10223537;28;20079;-71
2021/01/30 00:09:31;;;;;;;1.95;1.05;;;;;;;8.39;72.60;98545.50;10223186;28;20054;-71
2021/01/30 00:14:35;;;;;;;3.00;1.30;;;;;;;8.40;71.94;98544.50;10218098;28;20039;-71
2021/01/30 00:19:37;;;;;;;3.67;1.38;;;;;;;8.37;72.02;98558.06;10222075;28;20054;-71
2021/01/30 00:24:42;;;;;;;3.33;1.00;;;;;;;8.46;72.03;98554.53;10217992;28;20054;-71
2021/01/30 00:29:44;;;;;;;2.35;0.98;;;;;;;8.45;71.30;98550.22;10256869;28;20068;-71
2021/01/30 00:34:46;;;;;;;2.80;1.13;;;;;;;8.49;71.18;98558.69;10239226;28;20050;-71
2021/01/30 00:39:49;;;;;;;3.10;1.50;;;;;;;8.54;70.76;98563.53;10228630;28;20104;-70
2021/01/30 00:44:52;;;;;;;2.85;1.42;;;;;;;8.48;70.53;98575.56;10267902;28;20039;-70
2021/01/30 00:49:53;;;;;;;3.45;1.00;;;;;;;8.42;69.81;98563.75;10275057;28;20031;-71
2021/01/30 00:54:54;;;;;;;3.45;1.30;;;;;;;8.42;70.17;98557.59;10248178;28;20067;-71
2021/01/30 00:59:56;;;;;;;3.92;1.40;;;;;;;8.37;69.96;98570.47;10240469;28;20130;-70
2021/01/30 01:04:57;;;;;;;3.97;1.17;;;;;;;8.40;70.27;98578.13;10220788;28;20043;-70
2021/01/30 01:09:58;;;;;;;3.72;1.52;;;;;;;8.34;70.62;98581.41;10222825;28;20114;-70
2021/01/30 01:15:00;;;;;;;3.50;1.30;;;;;;;8.21;70.43;98560.53;10219239;28;20055;-71
2021/01/30 01:20:04;;;;;;;4.32;1.58;;;;;;;8.27;70.92;98587.28;10223338;28;20051;-70
2021/01/30 01:25:06;;;;;;;3.20;1.80;;;;;;;8.22;70.51;98591.38;10221000;28;20473;-70
2021/01/30 01:30:10;;;;;;;7.55;2.50;;;;;;;8.35;70.19;98610.41;10223079;28;20059;-70
2021/01/30 01:35:32;;;;;;;6.20;2.95;;;;;;;8.36;69.82;98620.03;10238676;28;20066;-70
2021/01/30 01:40:40;;;;;;;3.13;1.42;;;;;;;8.35;70.40;98609.56;10245875;28;20043;-71
2021/01/30 01:45:43;;;;;;;3.55;1.30;;;;;;;8.35;70.06;98612.19;10247478;28;20050;-71
2021/01/30 01:50:47;;;;;;;5.15;1.92;;;;;;;8.29;70.29;98608.34;10257159;28;20058;-70
2021/01/30 01:55:54;;;;;;;3.83;1.53;;;;;;;8.31;70.11;98616.97;10249371;28;20126;-71
2021/01/30 02:00:55;;;;;;;3.25;1.58;;;;;;;8.34;69.70;98608.72;10246618;28;20282;-71
2021/01/30 02:05:59;;;;;;;4.22;1.60;;;;;;;8.29;69.71;98605.69;10261421;28;20055;-71
2021/01/30 02:11:01;;;;;;;2.47;1.20;;;;;;;8.29;70.27;98611.00;10260964;28;20070;-70
2021/01/30 02:16:10;;;;;;;3.40;1.30;;;;;;;8.22;70.25;98601.97;10253242;28;20233;-70
2021/01/30 02:21:33;;;;;;;3.90;1.42;;;;;;;8.29;70.37;98601.22;10254422;28;20043;-69
2021/01/30 02:27:07;;;;;;;3.95;1.42;;;;;;;8.22;70.32;98599.31;10249442;28;20093;-71
2021/01/30 02:32:23;;;;;;;3.33;1.35;;;;;;;8.22;70.32;98599.31;10251963;28;20047;-70
2021/01/30 02:37:55;;;;;;;3.83;1.17;;;;;;;8.18;70.86;98595.28;10233690;28;20039;-69
2021/01/30 02:43:05;;;;;;;2.90;0.95;;;;;;;8.14;70.44;98595.59;10253104;28;20075;-69
2021/01/30 02:48:33;;;;;;;2.72;0.88;;;;;;;8.13;70.84;98593.91;10259953;28;20089;-72
2021/01/30 02:53:51;;;;;;;3.58;1.10;;;;;;;8.10;70.90;98596.88;10278732;28;20047;-72
2021/01/30 02:59:07;;;;;;;3.42;1.30;;;;;;;8.12;70.88;98594.06;10232525;28;20328;-72
2021/01/30 03:04:15;;;;;;;3.80;1.00;;;;;;;8.05;71.27;98587.72;10219076;28;20075;-71
2021/01/30 03:09:21;;;;;;;3.78;1.27;;;;;;;8.01;71.47;98600.41;10223197;28;20075;-70
2021/01/30 03:14:25;;;;;;;2.83;1.00;;;;;;;8.01;71.35;98592.47;10265235;28;20585;-71
2021/01/30 03:19:31;;;;;;;5.05;1.02;;;;;;;7.99;71.92;98605.03;10227273;28;20078;-71
2021/01/30 03:24:33;;;;;;;4.60;1.15;;;;;;;8.04;71.71;98602.75;10223707;28;20047;-71
2021/01/30 03:29:34;;;;;;;5.05;1.10;;;;;;;8.04;71.60;98592.16;10272179;28;20106;-71
2021/01/30 03:34:36;;;;;;;1.92;0.95;;;;;;;7.99;72.22;98604.19;10318077;28;20354;-71
2021/01/30 03:39:37;;;;;;;1.75;0.98;;;;;;;7.95;72.49;98598.34;10242908;28;20055;-70
2021/01/30 03:44:39;;;;;;;2.08;0.85;;;;;;;8.03;72.42;98592.31;10257016;28;20097;-70
2021/01/30 03:49:40;;;;;;;2.47;1.20;;;;;;;8.04;72.56;98602.75;10214230;28;20047;-72
2021/01/30 03:54:41;;;;;;;3.75;1.25;;;;;;;8.06;73.64;98615.84;10245422;28;20075;-71
2021/01/30 03:59:42;;;;;;;4.85;1.58;;;;;;;7.93;76.30;98600.31;10231185;28;20064;-71
2021/01/30 04:04:45;;;;;;;2.50;1.25;;;;;;;7.82;76.66;98592.56;10217805;28;20054;-71
2021/01/30 04:09:48;;;;;;;3.25;1.02;;;;;;;7.70;76.87;98579.53;10251663;28;20046;-71
2021/01/30 04:14:49;;;;;;;1.65;0.73;;;;;;;7.64;77.55;98574.81;10232068;28;20141;-71
2021/01/30 04:19:51;;;;;;;2.33;0.90;;;;;;;7.60;77.73;98576.06;10268807;28;20125;-71
2021/01/30 04:24:52;;;;;;;1.33;0.85;;;;;;;7.55;77.98;98591.53;10253863;28;20070;-71
2021/01/30 04:29:53;;;;;;;6.38;1.58;;;;;;;7.55;78.13;98571.22;10272509;28;20248;-71
2021/01/30 04:34:54;;;;;;;2.83;1.00;;;;;;;7.48;78.42;98556.06;10255921;28;20122;-72
2021/01/30 04:39:55;;;;;;;2.75;0.80;;;;;;;7.49;78.73;98552.41;10259612;28;20062;-72
2021/01/30 04:45:19;;;;;;;3.55;1.00;;;;;;;7.55;78.50;98550.03;10287142;28;20101;-71
2021/01/30 04:50:49;;;;;;;6.05;1.73;;;;;;;7.65;78.38;98557.09;10255031;28;20326;-71
2021/01/30 04:56:02;;;;;;;1.85;0.75;;;;;;;7.73;78.36;98558.03;10252706;28;20484;-71
2021/01/30 05:01:17;;;;;;;1.80;0.95;;;;;;;7.71;77.98;98554.69;10221242;28;20051;-71
2021/01/30 05:06:37;;;;;;;2.15;0.50;;;;;;;7.70;78.27;98553.03;10239716;28;20070;-70
2021/01/30 05:11:41;;;;;;;0.80;0.30;;;;;;;7.74;78.58;98558.84;10257462;28;20478;-71
2021/01/30 05:17:06;;;;;;;1.48;0.68;;;;;;;7.64;79.15;98532.44;10239910;28;20082;-71
2021/01/30 05:22:12;;;;;;;1.55;0.50;;;;;;;7.72;79.00;98534.34;10243082;28;20562;-71
2021/01/30 05:27:55;;;;;;;2.50;0.35;;;;;;;7.68;79.55;98544.38;10255270;28;20079;-71
2021/01/30 05:33:21;;;;;;;1.30;0.32;;;;;;;7.73;79.21;98546.59;10246600;28;20078;-72
2021/01/30 05:38:31;;;;;;;1.20;0.35;;;;;;;7.67;79.73;98540.09;10268849;28;20098;-71
2021/01/30 05:43:43;;;;;;;2.75;1.20;;;;;;;7.64;80.18;98544.81;10256423;28;20051;-71
2021/01/30 05:48:46;;;;;;;3.60;0.60;;;;;;;7.70;80.06;98546.88;10254274;28;20051;-71
2021/01/30 05:53:48;;;;;;;2.05;0.63;;;;;;;7.75;80.09;98545.47;10241944;28;20422;-71
2021/01/30 05:58:50;;;;;;;1.30;0.30;;;;;;;7.73;80.58;98542.13;10292884;28;20660;-72
2021/01/30 06:04:00;;;;;;;1.23;0.38;;;;;;;7.69;82.89;98543.41;10245898;28;20615;-70
2021/01/30 06:09:33;;;;;;;1.27;0.55;;;;;;;7.66;84.28;98540.22;10264507;28;20134;-71
2021/01/30 06:14:36;;;;;;;1.60;0.55;;;;;;;7.58;84.53;98543.59;10283961;28;20083;-71
2021/01/30 06:19:38;;;;;;;2.15;0.50;;;;;;;7.60;84.74;98536.34;10278755;28;20051;-71
2021/01/30 06:24:46;;;;;;;1.58;0.55;;;;;;;7.73;85.18;98552.72;10247086;28;20671;-71
2021/01/30 06:29:54;;;;;;;1.08;0.32;;;;;;;7.71;86.60;98564.44;10231681;28;20073;-71
2021/01/30 06:35:06;;;;;;;1.17;0.50;;;;;;;7.60;87.86;98553.06;10247582;28;20042;-71
2021/01/30 06:40:31;;;;;;;1.88;0.73;;;;;;;7.55;88.79;98550.03;10281016;28;20047;-71
2021/01/30 06:45:37;;;;;;;1.80;0.90;;;;;;;7.61;88.49;98549.44;10258858;28;20130;-71
2021/01/30 06:50:42;;;;;;;1.17;0.70;;;;;;;7.65;87.69;98549.97;10256915;28;20050;-71
2021/01/30 06:55:44;;;;;;;0.80;0.35;;;;;;;7.48;88.97;98533.06;10249729;28;20051;-70
2021/01/30 07:00:45;;;;;;;1.75;0.60;;;;;;;7.60;89.27;98554.88;10284456;28;20050;-71
2021/01/30 07:06:11;;;;;;;1.20;0.70;;;;;;;7.71;88.92;98549.38;10255595;28;20066;-71
2021/01/30 07:11:15;;;;;;;1.13;0.90;;;;;;;7.71;89.80;98544.09;10239681;28;20134;-69
2021/01/30 07:16:32;;;;;;;1.93;1.00;;;;;;;7.82;88.62;98544.88;10264689;28;20124;-70
2021/01/30 07:21:40;;;;;;;2.35;1.30;;;;;;;7.85;88.55;98549.88;10231907;28;20110;-70
2021/01/30 07:26:45;;;;;;;2.42;1.20;;;;;;;7.93;89.11;98555.28;10229619;28;20626;-70
2021/01/30 07:31:50;;;;;;;;;;;;;;;8.02;88.67;98565.00;10274367;28;20410;-70
2021/01/30 07:37:36;;;;;;;3.70;1.93;;;;;;;8.01;88.23;98571.25;10266255;28;20052;-70
2021/01/30 07:43:16;;;;;;;3.20;2.03;;;;;;;8.19;87.26;98573.13;10125672;29;20184;-68
2021/01/30 07:48:28;;;;;;;2.20;1.08;;;;;;;8.22;85.68;98581.59;10218196;28;20059;-68
2021/01/30 07:53:30;;;;;;;0.57;0.38;;;;;;;8.24;83.87;98578.78;10224342;28;20072;-69
2021/01/30 07:59:08;;;;;;;1.15;0.65;;;;;;;8.17;84.47;98581.22;10223964;28;20062;-70
2021/01/30 08:04:12;;;;;;;3.80;1.38;;;;;;;8.21;83.15;98587.03;10230364;28;20533;-68
2021/01/30 08:09:16;;;;;;;1.33;1.23;;;;;;;7.53;77.17;98598.81;10236858;28;20133;-70
2021/01/30 08:14:29;;;;;;;2.13;1.93;;;;;;;7.11;78.49;98594.72;10280949;28;20453;-69
2021/01/30 08:19:37;;;;;;;2.28;2.08;;;;;;;6.84;77.26;98614.78;10276337;28;20133;-69
2021/01/30 08:24:46;;;;;;;3.10;2.80;;;;;;;6.85;77.25;98616.47;10301543;28;20129;-69
2021/01/30 08:29:50;;;;;;;2.40;2.20;;;;;;;6.61;76.91;98624.81;10272721;28;20074;-69
2021/01/30 08:35:15;;;;;;;2.47;2.28;;;;;;;6.52;76.13;98646.81;10247176;28;20107;-70
2021/01/30 08:40:17;;;;;;;3.50;3.10;;;;;;;5.97;74.38;98642.75;10263590;28;20038;-69
2021/01/30 08:45:25;;;;;;;3.55;3.25;;;;;;;6.04;74.72;98647.53;10229709;28;20055;-69
2021/01/30 08:50:48;;;;;;;5.00;4.53;;;;;;;5.70;74.86;98666.25;10268539;28;20051;-69
2021/01/30 08:55:51;;;;;;;5.93;5.43;;;;;;;5.76;73.40;98671.00;10284659;28;20094;-72
2021/01/30 09:00:56;;;;;;;6.28;5.75;;;;;;;5.79;73.29;98681.28;10266513;28;20129;-71
2021/01/30 09:05:57;;;;;;;8.25;7.45;;;;;;;5.77;72.28;98683.25;10237468;28;20130;-71
2021/01/30 09:11:38;;;;;;;7.88;7.18;;;;;;;5.55;72.36;98690.34;10218898;28;20466;-68
2021/01/30 09:16:57;;;;;;;7.93;7.18;;;;;;;5.49;70.67;98685.56;10251415;28;20137;-68
2021/01/30 09:22:22;;;;;;;7.22;6.63;;;;;;;5.07;72.09;98690.84;10266477;28;20053;-70
2021/01/30 09:27:28;;;;;;;8.27;7.57;;;;;;;4.95;73.43;98682.13;10267840;28;20059;-71
2021/01/30 09:32:44;;;;;;;8.25;7.55;;;;;;;5.13;72.77;98690.31;10217736;28;20158;-70
2021/01/30 09:37:47;;;;;;;7.20;6.50;;;;;;;5.00;73.05;98687.03;10215144;28;20454;-71
2021/01/30 09:42:59;;;;;;;7.43;6.82;;;;;;;4.78;72.88;98688.78;10265910;28;20604;-70
2021/01/30 09:48:09;;;;;;;8.02;7.15;;;;;;;4.64;73.87;98689.06;10218220;28;20050;-70
2021/01/30 09:53:14;;;;;;;8.10;7.40;;;;;;;4.94;72.50;98705.03;10233134;28;20396;-70
2021/01/30 09:58:20;;;;;;;8.07;7.37;;;;;;;4.82;73.16;98708.69;10260097;28;20057;-71
2021/01/30 10:03:26;;;;;;;8.63;7.93;;;;;;;4.94;72.45;98714.75;10243612;28;20074;-71
2021/01/30 10:08:33;;;;;;;8.77;8.05;;;;;;;5.15;72.45;98725.34;10261669;28;20054;-71
2021/01/30 10:13:36;;;;;;;7.53;6.82;;;;;;;5.07;70.87;98725.13;10244791;28;20055;-70
2021/01/30 10:18:40;;;;;;;8.40;7.70;;;;;;;4.85;71.90;98721.63;10246451;28;20129;-70
2021/01/30 10:23:48;;;;;;;7.50;6.90;;;;;;;4.78;71.37;98717.78;10276943;28;20050;-72
2021/01/30 10:28:56;;;;;;;7.72;7.13;;;;;;;4.80;71.86;98720.31;10275519;28;20065;-71
2021/01/30 10:34:17;;;;;;;8.73;7.93;;;;;;;4.95;71.67;98716.41;10278309;28;20202;-72
2021/01/30 10:39:20;;;;;;;8.43;7.72;;;;;;;5.03;71.18;98710.50;10188502;28;20121;-72
2021/01/30 10:44:26;;;;;;;7.93;7.18;;;;;;;4.85;71.06;98711.06;10236537;28;20173;-72
2021/01/30 10:49:34;;;;;;;7.15;6.55;;;;;;;4.86;71.19;98715.34;10228578;28;20483;-72
2021/01/30 10:54:38;;;;;;;8.32;7.63;;;;;;;5.05;71.99;98714.69;10233725;28;20157;-72
2021/01/30 10:59:47;;;;;;;7.38;6.80;;;;;;;4.98;71.43;98713.53;10225738;28;20051;-71
2021/01/30 11:05:06;;;;;;;8.38;7.72;;;;;;;4.98;72.36;98715.34;10265822;28;20046;-70
2021/01/30 11:10:20;;;;;;;7.45;6.85;;;;;;;4.95;71.12;98716.41;10220145;28;20494;-71
2021/01/30 11:15:23;;;;;;;6.90;6.40;;;;;;;4.91;71.74;98715.84;10219166;28;20137;-71
2021/01/30 11:20:48;;;;;;;7.68;7.07;;;;;;;4.93;71.95;98703.34;10255519;28;20051;-74
2021/01/30 11:25:49;;;;;;;7.90;7.00;;;;;;;5.12;71.05;98693.94;10261862;28;20051;-69
2021/01/30 11:30:51;;;;;;;8.00;7.28;;;;;;;5.19;70.92;98708.28;10296745;28;20528;-70
2021/01/30 11:35:54;;;;;;;7.85;7.25;;;;;;;5.34;71.48;98689.50;10241539;28;20077;-70
2021/01/30 11:40:57;;;;;;;7.68;7.07;;;;;;;5.38;70.75;98672.47;10228633;28;20102;-68
2021/01/30 11:45:58;;;;;;;7.40;6.80;;;;;;;5.39;71.82;98674.97;10225596;28;20566;-70
2021/01/30 11:51:01;;;;;;;7.82;7.20;;;;;;;5.43;70.49;98664.97;10272694;28;20501;-70
2021/01/30 11:56:02;;;;;;;7.90;7.30;;;;;;;5.40;71.01;98665.25;10227747;28;20115;-70
2021/01/30 12:01:04;;;;;;;7.75;7.15;;;;;;;5.27;71.85;98661.00;10218006;28;20075;-70
2021/01/30 12:06:05;;;;;;;7.75;7.15;;;;;;;5.41;72.06;98657.19;10215276;28;20190;-68
2021/01/30 12:11:07;;;;;;;7.38;6.68;;;;;;;5.31;71.98;98649.25;10215887;28;20062;-71
2021/01/30 12:16:09;;;;;;;6.28;5.82;;;;;;;5.35;71.30;98651.63;10216787;28;20059;-69
2021/01/30 12:21:10;;;;;;;6.10;5.47;;;;;;;5.32;71.17;98634.22;10217963;28;20081;-71
2021/01/30 12:26:19;;;;;;;5.38;4.97;;;;;;;5.41;70.94;98619.44;10222567;28;20059;-70
2021/01/30 12:31:21;;;;;;;5.43;4.93;;;;;;;5.19;70.09;98615.94;10214989;28;20547;-73
2021/01/30 12:36:23;;;;;;;5.45;4.95;;;;;;;5.31;70.83;98616.72;10224907;28;20051;-73
2021/01/30 12:41:26;;;;;;;5.53;5.00;;;;;;;5.18;70.07;98606.38;10228490;28;20510;-70
2021/01/30 12:46:42;;;;;;;5.50;5.10;;;;;;;5.22;70.08;98604.31;10234635;28;20047;-70
2021/01/30 12:51:44;;;;;;;5.40;4.90;;;;;;;5.06;70.17;98596.84;10233969;28;20053;-74
2021/01/30 12:56:46;;;;;;;5.93;5.35;;;;;;;5.30;69.92;98596.59;10240894;28;20561;-70
2021/01/30 13:01:47;;;;;;;4.75;4.45;;;;;;;5.16;69.57;98589.00;10239782;28;20446;-70
2021/01/30 13:06:49;;;;;;;4.88;4.47;;;;;;;5.06;70.47;98583.66;10242901;28;20311;-71
2021/01/30 13:11:50;;;;;;;5.85;5.25;;;;;;;5.13;70.50;98590.09;10238312;28;20157;-70
2021/01/30 13:16:52;;;;;;;5.35;4.93;;;;;;;5.19;69.92;98581.66;10240469;28;21825;-71
2021/01/30 13:21:53;;;;;;;5.53;5.13;;;;;;;4.87;70.24;98585.22;10236465;28;20106;-70
2021/01/30 13:26:54;;;;;;;5.00;4.60;;;;;;;4.90;69.54;98579.69;10232538;28;20055;-70
2021/01/30 13:31:56;;;;;;;5.28;4.85;;;;;;;4.88;70.39;98578.13;10226844;28;20521;-71
2021/01/30 13:36:57;;;;;;;5.72;5.22;;;;;;;4.81;71.39;98559.38;10288178;23;20054;-67
2021/01/30 13:41:58;;;;;;;6.00;4.40;;;;;;;4.74;70.54;98552.94;10306329;28;20743;-68
2021/01/30 13:46:59;;;;;;;5.18;4.75;;;;;;;4.80;70.44;98568.22;10305265;28;20057;-66
2021/01/30 13:52:03;;;;;;;5.28;4.78;;;;;;;4.65;71.37;98551.88;10290129;28;20502;-67
2021/01/30 13:57:04;;;;;;;5.55;4.80;;;;;;;4.64;71.36;98555.50;10289653;28;20618;-66
2021/01/30 14:02:05;;;;;;;4.82;4.43;;;;;;;4.53;72.36;98561.63;10288302;28;20050;-66
2021/01/30 14:07:07;;;;;;;5.00;4.60;;;;;;;4.58;71.72;98562.13;10281863;28;20050;-69
2021/01/30 14:12:08;;;;;;;4.80;4.40;;;;;;;4.33;73.35;98549.28;10286618;28;20054;-67
2021/01/30 14:17:09;;;;;;;5.72;5.22;;;;;;;4.39;72.75;98551.41;10281094;28;20161;-67
2021/01/30 14:22:11;;;;;;;6.20;4.82;;;;;;;4.53;72.18;98556.38;10238408;28;20193;-67
2021/01/30 14:27:12;;;;;;;5.25;4.85;;;;;;;4.53;72.58;98545.84;10245976;28;20051;-67
2021/01/30 14:32:13;;;;;;;5.57;4.88;;;;;;;4.31;73.09;98535.38;10245487;28;20814;-67
2021/01/30 14:37:15;;;;;;;4.80;4.30;;;;;;;4.20;73.89;98539.75;10273024;28;20058;-67
2021/01/30 14:42:16;;;;;;;5.43;4.93;;;;;;;4.32;73.94;98529.16;10278104;28;20050;-67
2021/01/30 14:47:21;;;;;;;6.25;5.13;;;;;;;4.37;73.40;98543.63;10278167;28;20133;-68
2021/01/30 14:52:22;;;;;;;4.80;4.38;;;;;;;4.41;73.76;98544.22;10279649;28;20490;-67
2021/01/30 14:57:24;;;;;;;5.88;5.32;;;;;;;4.32;73.63;98531.81;10271113;28;20466;-68
2021/01/30 15:02:25;;;;;;;5.80;5.30;;;;;;;4.33;73.69;98528.22;10265058;28;20138;-67
2021/01/30 15:07:27;;;;;;;5.68;4.97;;;;;;;4.31;73.87;98535.38;10275313;28;20066;-67
2021/01/30 15:12:28;;;;;;;6.22;5.72;;;;;;;4.05;73.99;98519.91;10274626;28;20114;-67
2021/01/30 15:17:29;;;;;;;5.32;4.93;;;;;;;4.20;73.79;98536.28;10275864;28;20082;-67
2021/01/30 15:22:31;;;;;;;5.20;4.72;;;;;;;4.11;73.57;98537.03;10243939;28;20050;-67
2021/01/30 15:27:32;;;;;;;5.15;4.75;;;;;;;3.98;75.34;98526.63;10274479;28;20050;-67
2021/01/30 15:32:33;;;;;;;5.65;5.15;;;;;;;4.02;74.71;98520.16;10314370;28;20504;-68
2021/01/30 15:37:34;;;;;;;6.43;5.82;;;;;;;4.15;74.34;98536.66;10306766;28;20046;-67
2021/01/30 15:42:36;;;;;;;7.72;6.65;;;;;;;3.85;75.72;98522.38;10262995;28;20639;-68
2021/01/30 15:47:37;;;;;;;6.93;5.95;;;;;;;3.88;75.67;98519.47;10270320;28;20211;-67
2021/01/30 15:52:39;;;;;;;6.85;5.97;;;;;;;3.94;75.04;98539.22;10289556;28;20139;-67
2021/01/30 15:57:40;;;;;;;6.80;6.20;;;;;;;4.03;75.03;98549.00;10263783;28;20256;-66
2021/01/30 16:02:42;;;;;;;6.15;5.65;;;;;;;3.99;75.27;98552.84;10248186;28;20057;-66
2021/01/30 16:07:43;;;;;;;6.53;6.00;;;;;;;3.98;75.73;98555.59;10246745;28;20054;-67
2021/01/30 16:12:45;;;;;;;5.55;5.15;;;;;;;3.92;75.75;98556.94;10271156;28;20050;-65
2021/01/30 16:17:47;;;;;;;8.13;7.43;;;;;;;3.87;75.75;98538.03;10254324;28;20063;-64
2021/01/30 16:22:48;;;;;;;6.65;6.15;;;;;;;3.88;75.49;98539.72;10257018;28;20154;-64
2021/01/30 16:27:50;;;;;;;7.03;6.40;;;;;;;3.93;75.81;98547.25;10287735;28;20082;-66
2021/01/30 16:32:51;;;;;;;6.20;5.70;;;;;;;3.81;75.87;98559.59;10258656;28;20577;-66
2021/01/30 16:37:53;;;;;;;6.18;5.57;;;;;;;3.86;75.78;98560.06;10257878;28;20053;-66
2021/01/30 16:42:54;;;;;;;6.30;5.72;;;;;;;3.74;75.54;98564.50;10257858;28;20070;-67
2021/01/30 16:47:56;;;;;;;6.82;6.22;;;;;;;3.62;76.55;98568.09;10258678;28;20085;-66
2021/01/30 16:52:57;;;;;;;6.47;5.97;;;;;;;3.68;76.36;98575.53;10262804;28;20069;-66
2021/01/30 16:57:59;;;;;;;6.88;6.05;;;;;;;3.47;76.38;98542.03;10242021;28;20521;-64
2021/01/30 17:03:02;;;;;;;6.50;5.88;;;;;;;3.69;76.18;98585.94;10252099;28;20117;-67
2021/01/30 17:08:04;;;;;;;8.57;5.70;;;;;;;3.68;76.45;98570.25;10261320;28;20201;-66
2021/01/30 17:13:14;;;;;;;5.60;5.10;;;;;;;3.66;76.23;98582.69;10278650;28;20061;-65
2021/01/30 17:18:16;;;;;;;4.90;4.50;;;;;;;3.66;76.28;98587.94;10297414;28;20461;-65
2021/01/30 17:23:18;;;;;;;4.78;4.38;;;;;;;3.52;76.44;98586.41;10275773;28;20047;-66
2021/01/30 17:28:19;;;;;;;4.32;3.92;;;;;;;3.60;76.70;98614.75;10258503;28;20086;-66
2021/01/30 17:33:22;;;;;;;4.03;3.70;;;;;;;3.58;76.32;98599.09;10256634;28;20126;-63
2021/01/30 17:38:23;;;;;;;4.50;4.10;;;;;;;3.52;76.75;98602.19;10259786;28;20171;-66
2021/01/30 17:43:25;;;;;;;4.65;4.07;;;;;;;3.57;76.71;98600.03;10301956;28;20105;-68
2021/01/30 17:48:27;;;;;;;4.75;4.35;;;;;;;3.57;76.02;98615.00;10299715;28;20143;-68
2021/01/30 17:53:28;;;;;;;4.82;4.30;;;;;;;3.52;77.00;98613.53;10301529;28;20106;-67
2021/01/30 17:58:29;;;;;;;4.07;3.67;;;;;;;3.51;76.79;98611.03;10260328;28;20082;-67
2021/01/30 18:03:30;;;;;;;4.45;3.75;;;;;;;3.43;76.33;98614.25;10270968;28;20853;-69
2021/01/30 18:08:33;;;;;;;4.78;4.38;;;;;;;3.49;76.75;98623.47;10288098;28;20047;-67
2021/01/30 18:13:34;;;;;;;4.57;4.18;;;;;;;3.39;76.66;98602.28;10258911;28;20458;-69
2021/01/30 18:18:36;;;;;;;4.35;3.95;;;;;;;3.41;76.70;98610.91;10258001;28;20414;-67
2021/01/30 18:23:38;;;;;;;4.50;4.10;;;;;;;3.56;76.47;98629.94;10271447;28;20182;-67
2021/01/30 18:28:39;;;;;;;5.07;4.60;;;;;;;3.57;76.37;98636.03;10268423;28;20130;-66
2021/01/30 18:33:41;;;;;;;5.70;5.20;;;;;;;3.55;76.45;98609.84;10270041;28;20128;-67
2021/01/30 18:38:42;;;;;;;6.82;6.05;;;;;;;3.63;76.40;98614.50;10302020;28;20092;-68
2021/01/30 18:43:44;;;;;;;6.72;6.22;;;;;;;3.58;76.29;98624.56;10313540;28;20481;-68
2021/01/30 18:48:45;;;;;;;5.72;5.22;;;;;;;3.61;75.92;98627.78;10260464;28;20130;-68
2021/01/30 18:53:46;;;;;;;5.63;5.13;;;;;;;3.56;75.61;98639.63;10255462;28;20121;-67
2021/01/30 18:58:48;;;;;;;5.32;4.82;;;;;;;3.42;75.62;98635.44;10250481;28;20054;-68
2021/01/30 19:03:49;;;;;;;5.35;4.38;;;;;;;3.44;75.83;98644.88;10258327;28;20062;-68
2021/01/30 19:08:50;;;;;;;3.90;3.60;;;;;;;3.38;75.73;98637.47;10261329;28;20078;-66
2021/01/30 19:13:52;;;;;;;5.10;4.50;;;;;;;3.38;75.76;98639.22;10263030;28;20098;-68
2021/01/30 19:18:53;;;;;;;5.32;4.90;;;;;;;3.42;75.63;98631.00;10293631;28;20932;-67
2021/01/30 19:23:55;;;;;;;5.63;5.10;;;;;;;3.43;75.62;98635.31;10256850;28;20184;-67
2021/01/30 19:28:57;;;;;;;5.95;5.45;;;;;;;3.35;76.57;98645.59;10261579;28;20058;-67
2021/01/30 19:33:58;;;;;;;6.75;6.13;;;;;;;3.57;76.62;98657.09;10262674;28;20125;-70
2021/01/30 19:39:00;;;;;;;7.15;6.45;;;;;;;3.68;75.86;98654.47;10280397;28;20206;-68
2021/01/30 19:44:05;;;;;;;6.55;5.88;;;;;;;3.67;75.72;98668.59;10275993;28;20177;-68
2021/01/30 19:49:07;;;;;;;;;;;;;;;3.63;75.34;98673.22;10299338;28;20089;-67
2021/01/30 19:54:08;;;;;;;6.10;5.53;;;;;;;3.54;74.87;98666.91;10306752;28;20016;-67
2021/01/30 19:59:09;;;;;;;7.25;6.55;;;;;;;3.57;75.73;98667.63;10312303;28;20042;-67
2021/01/30 20:04:11;;;;;;;6.20;5.65;;;;;;;3.64;74.83;98679.34;10302731;28;20050;-69
2021/01/30 20:09:13;;;;;;;6.90;6.20;;;;;;;3.44;75.33;98654.53;10293206;28;20062;-68
2021/01/30 20:14:14;;;;;;;5.70;5.20;;;;;;;3.58;74.76;98679.81;10291666;28;20154;-68
2021/01/30 20:19:15;;;;;;;5.15;4.75;;;;;;;3.51;74.98;98669.78;10269041;28;20398;-68
2021/01/30 20:24:17;;;;;;;5.20;4.80;;;;;;;3.46;75.20;98661.38;10271263;28;20054;-67
2021/01/30 20:29:20;;;;;;;5.32;4.93;;;;;;;3.39;74.85;98662.78;10306819;28;20161;-67
2021/01/30 20:34:21;;;;;;;5.65;5.15;;;;;;;3.30;75.62;98647.72;10300373;28;20768;-69
2021/01/30 20:39:22;;;;;;;5.47;4.97;;;;;;;3.39;74.85;98675.94;10290300;28;20194;-69
2021/01/30 20:44:23;;;;;;;6.03;5.53;;;;;;;3.39;75.33;98683.84;10264507;28;20523;-68
2021/01/30 20:49:28;;;;;;;6.00;5.45;;;;;;;3.48;74.88;98685.78;10261625;28;20046;-67
2021/01/30 20:54:29;;;;;;;6.97;6.25;;;;;;;3.45;75.07;98680.78;10274354;28;20074;-67
2021/01/30 20:59:30;;;;;;;6.55;5.95;;;;;;;3.38;75.09;98678.69;10262485;28;20075;-66
2021/01/30 21:04:31;;;;;;;7.00;6.30;;;;;;;3.42;75.00;98670.44;10295174;28;20583;-67
2021/01/30 21:09:33;;;;;;;6.13;5.63;;;;;;;3.37;75.56;98693.66;10298726;28;20472;-67
2021/01/30 21:14:34;;;;;;;6.20;5.60;;;;;;;3.38;76.20;98705.00;10260050;28;20167;-67
2021/01/30 21:19:35;;;;;;;8.18;7.47;;;;;;;3.42;75.58;98707.28;10267221;28;20559;-69
2021/01/30 21:24:37;;;;;;;7.75;7.05;;;;;;;3.42;75.48;98709.06;10268079;28;20521;-68
2021/01/30 21:29:38;;;;;;;7.80;7.00;;;;;;;3.46;75.64;98703.47;10299339;28;20062;-68
2021/01/30 21:34:39;;;;;;;7.72;6.97;;;;;;;3.42;74.84;98707.28;10300210;28;20050;-68
2021/01/30 21:39:40;;;;;;;7.60;6.90;;;;;;;3.14;75.99;98687.50;10281711;28;20506;-66
2021/01/30 21:44:42;;;;;;;7.85;7.05;;;;;;;3.23;75.34;98699.09;10255532;28;20070;-68
2021/01/30 21:49:43;;;;;;;8.35;6.97;;;;;;;3.26;75.11;98698.88;10256785;28;20532;-67
2021/01/30 21:54:44;;;;;;;8.73;7.18;;;;;;;3.37;75.04;98722.56;10297136;28;20046;-67
2021/01/30 21:59:45;;;;;;;7.40;6.35;;;;;;;3.21;76.01;98724.69;10287824;28;20060;-68
2021/01/30 22:04:47;;;;;;;7.13;6.43;;;;;;;3.28;75.37;98718.00;10268707;28;20078;-66
2021/01/30 22:09:48;;;;;;;7.57;6.80;;;;;;;3.28;75.33;98734.63;10267395;28;20536;-66
2021/01/30 22:14:49;;;;;;;10.27;9.23;;;;;;;3.28;75.99;98736.44;10260011;28;20890;-67
2021/01/30 22:19:51;;;;;;;7.38;6.68;;;;;;;3.28;75.11;98720.66;10257833;28;20657;-66
2021/01/30 22:24:52;;;;;;;7.20;6.55;;;;;;;3.04;75.55;98712.78;10264511;28;20074;-67
2021/01/30 22:29:53;;;;;;;6.90;6.30;;;;;;;3.14;75.45;98719.06;10267348;28;20061;-66
2021/01/30 22:34:54;;;;;;;8.25;6.95;;;;;;;3.33;74.77;98750.06;10298563;28;20073;-68
2021/01/30 22:39:56;;;;;;;7.38;6.68;;;;;;;3.33;74.34;98744.78;10293020;28;20056;-66
2021/01/30 22:44:59;;;;;;;6.97;6.38;;;;;;;3.14;74.29;98727.78;10279234;28;20055;-68
2021/01/30 22:50:00;;;;;;;7.07;6.40;;;;;;;3.30;74.74;98739.75;10286489;28;20124;-68
2021/01/30 22:55:02;;;;;;;6.90;6.20;;;;;;;3.36;74.48;98745.44;10275706;28;20137;-67
2021/01/30 23:00:26;;;;;;;7.28;6.30;;;;;;;3.20;74.55;98750.16;10255791;28;20381;-66
2021/01/30 23:05:29;;;;;;;6.75;5.97;;;;;;;3.26;73.85;98759.34;10296759;28;20504;-66
2021/01/30 23:10:31;;;;;;;6.30;5.72;;;;;;;3.24;73.46;98761.25;10294486;28;22450;-67
2021/01/30 23:15:33;;;;;;;6.32;5.72;;;;;;;3.19;73.15;98770.31;10291413;28;20169;-68
2021/01/30 23:20:35;;;;;;;7.35;5.50;;;;;;;3.24;72.93;98761.25;10290322;28;20073;-68
2021/01/30 23:25:38;;;;;;;6.57;5.97;;;;;;;3.31;72.53;98754.59;10268639;28;20133;-69
2021/01/30 23:30:54;;;;;;;7.53;6.78;;;;;;;3.24;72.68;98761.25;10289561;28;20458;-68
2021/01/30 23:35:56;;;;;;;6.03;5.53;;;;;;;3.21;72.31;98764.94;10298040;28;20554;-69
2021/01/30 23:40:57;;;;;;;6.05;5.47;;;;;;;3.20;71.73;98765.94;10290274;28;20497;-68
2021/01/30 23:45:59;;;;;;;6.97;6.25;;;;;;;3.28;71.34;98760.09;10268141;28;20202;-68
2021/01/30 23:51:07;;;;;;;7.00;6.30;;;;;;;3.30;71.16;98760.81;10271718;28;20477;-68
2021/01/30 23:56:08;;;;;;;7.18;6.47;;;;;;;3.22;71.24;98757.94;10265219;28;20474;-67
